Time;durP1;ratioP1;P1;durP2;ratioP2;P2;SDS_P1;SDS_P2;PMS_P1;PMS_P2;Temp;Humidity;BMP_temperature;BMP_pressure;BME280_temperature;BME280_humidity;BME280_pressure;Samples;Min_cycle;Max_cycle;Signal;HPM_P1;HPM_P2
2024/03/03 00:01:46;;;;;;;2.03;1.70;;;11.80;99.90;;;;;;5033593;28;20382;-55
2024/03/03 00:04:14;;;;;;;2.58;1.92;;;11.80;99.90;;;;;;5033214;28;20025;-52
2024/03/03 00:06:40;;;;;;;2.35;1.95;;;11.80;99.90;;;;;;5032126;28;20033;-54
2024/03/03 00:09:06;;;;;;;3.83;2.28;;;11.80;99.90;;;;;;5033536;28;20095;-54
2024/03/03 00:11:32;;;;;;;2.53;1.52;;;11.70;99.90;;;;;;5033072;28;20021;-53
2024/03/03 00:13:58;;;;;;;2.92;1.83;;;11.70;99.90;;;;;;5033375;28;20116;-54
2024/03/03 00:16:24;;;;;;;3.75;1.98;;;11.70;99.90;;;;;;5033391;28;20474;-57
2024/03/03 00:18:49;;;;;;;2.78;2.10;;;11.70;99.90;;;;;;5033125;28;20047;-39
2024/03/03 00:21:15;;;;;;;2.13;1.88;;;11.70;99.90;;;;;;5033073;28;20079;-41
2024/03/03 00:23:41;;;;;;;4.13;2.08;;;11.70;99.90;;;;;;5032866;28;20048;-38
2024/03/03 00:26:07;;;;;;;3.72;2.55;;;11.60;99.90;;;;;;5032151;28;20125;-39
2024/03/03 00:28:32;;;;;;;4.28;2.22;;;11.60;99.90;;;;;;5032779;28;20367;-39
2024/03/03 00:30:58;;;;;;;3.25;2.10;;;11.60;99.90;;;;;;5032668;28;20041;-43
2024/03/03 00:33:24;;;;;;;4.03;2.38;;;11.60;99.90;;;;;;5032871;28;20104;-39
2024/03/03 00:35:50;;;;;;;2.47;2.10;;;11.60;99.90;;;;;;5032752;28;20082;-39
2024/03/03 00:38:15;;;;;;;4.55;2.15;;;11.60;99.90;;;;;;5033077;28;20022;-38
2024/03/03 00:40:41;;;;;;;3.40;2.20;;;11.60;99.90;;;;;;5032059;28;20104;-38
2024/03/03 00:43:07;;;;;;;4.13;2.83;;;11.60;99.90;;;;;;5052403;28;20060;-52
2024/03/03 00:45:33;;;;;;;2.75;1.95;;;11.70;99.90;;;;;;5052861;28;20017;-55
2024/03/03 00:47:59;;;;;;;5.07;2.63;;;11.60;99.90;;;;;;5052465;28;20378;-53
2024/03/03 00:50:25;;;;;;;2.47;2.00;;;11.60;99.90;;;;;;5051176;28;20028;-53
2024/03/03 00:52:54;;;;;;;3.88;2.38;;;11.60;99.90;;;;;;5052587;28;20032;-57
2024/03/03 00:55:21;;;;;;;4.50;2.53;;;11.60;99.90;;;;;;5052378;28;20032;-54
2024/03/03 00:57:46;;;;;;;3.25;2.17;;;11.50;99.90;;;;;;5052121;28;20033;-56
2024/03/03 01:00:12;;;;;;;2.78;2.03;;;11.50;99.90;;;;;;5046877;28;20033;-52
2024/03/03 01:02:38;;;;;;;4.90;2.72;;;11.40;99.90;;;;;;5051507;28;20532;-53
2024/03/03 01:05:04;;;;;;;2.95;2.33;;;11.30;99.90;;;;;;5052495;28;20029;-55
2024/03/03 01:07:30;;;;;;;3.30;2.15;;;11.30;99.90;;;;;;5052669;28;20556;-55
2024/03/03 01:09:56;;;;;;;3.35;2.28;;;11.20;99.90;;;;;;5052441;28;20132;-56
2024/03/03 01:12:22;;;;;;;5.13;2.75;;;11.20;99.90;;;;;;5052380;28;20469;-56
2024/03/03 01:14:47;;;;;;;6.85;2.47;;;11.10;99.90;;;;;;5052062;28;20021;-56
2024/03/03 01:17:13;;;;;;;4.65;2.50;;;11.10;99.90;;;;;;5032700;28;20049;-56
2024/03/03 01:19:39;;;;;;;2.10;1.90;;;11.20;99.90;;;;;;5032683;28;20501;-54
2024/03/03 01:22:04;;;;;;;4.30;2.33;;;11.30;99.90;;;;;;5032602;28;20056;-56
2024/03/03 01:24:30;;;;;;;2.25;2.00;;;11.30;99.90;;;;;;5032635;28;20113;-55
2024/03/03 01:26:56;;;;;;;2.75;2.25;;;11.30;99.90;;;;;;5031061;28;20608;-57
2024/03/03 01:29:24;;;;;;;6.35;2.00;;;11.30;99.90;;;;;;5032311;28;20017;-53
2024/03/03 01:31:51;;;;;;;;;;;11.30;99.90;;;;;;5033278;28;20026;-54
2024/03/03 01:34:16;;;;;;;3.13;2.17;;;11.30;99.90;;;;;;5030850;28;19905;-55
2024/03/03 01:36:42;;;;;;;7.10;3.40;;;11.30;99.90;;;;;;5032196;28;20151;-54
2024/03/03 01:39:09;;;;;;;3.90;2.40;;;11.30;99.90;;;;;;5032263;28;20394;-54
2024/03/03 01:41:35;;;;;;;3.30;2.50;;;11.40;99.90;;;;;;5032164;28;20021;-53
2024/03/03 01:44:01;;;;;;;5.80;2.00;;;11.50;99.90;;;;;;5032115;28;20036;-56
2024/03/03 01:46:28;;;;;;;3.08;2.38;;;11.50;99.90;;;;;;5032203;28;20033;-53
2024/03/03 01:48:54;;;;;;;2.65;2.13;;;11.60;99.90;;;;;;5033219;28;20494;-55
2024/03/03 01:51:21;;;;;;;4.05;2.15;;;11.60;99.90;;;;;;5052272;28;20021;-55
2024/03/03 01:53:50;;;;;;;3.28;1.90;;;11.70;99.90;;;;;;5055774;28;20090;-39
2024/03/03 01:56:19;;;;;;;2.50;2.30;;;11.70;99.90;;;;;;5054585;28;20021;-39
2024/03/03 01:58:45;;;;;;;;;;;11.70;99.90;;;;;;5056063;28;20028;-42
2024/03/03 02:01:11;;;;;;;6.57;3.20;;;11.70;99.90;;;;;;5055421;28;19916;-38
2024/03/03 02:03:39;;;;;;;6.20;2.67;;;11.70;99.90;;;;;;5055034;28;20393;-41
2024/03/03 02:06:06;;;;;;;3.88;2.75;;;11.70;99.90;;;;;;5052207;28;20110;-43
2024/03/03 02:08:33;;;;;;;7.78;2.95;;;11.70;99.90;;;;;;5035398;28;20036;-40
2024/03/03 02:10:59;;;;;;;3.78;2.30;;;11.80;99.90;;;;;;5035414;28;20489;-42
2024/03/03 02:13:24;;;;;;;7.05;2.50;;;11.80;99.90;;;;;;5035332;28;20026;-38
2024/03/03 02:15:50;;;;;;;3.58;2.75;;;11.80;99.90;;;;;;5035591;28;20025;-40
2024/03/03 02:18:16;;;;;;;2.22;2.00;;;11.90;99.90;;;;;;5034026;28;20112;-41
2024/03/03 02:20:41;;;;;;;2.55;1.80;;;11.90;99.90;;;;;;5035485;28;20083;-39
2024/03/03 02:23:09;;;;;;;3.35;2.10;;;11.90;99.90;;;;;;5035718;28;20040;-38
2024/03/03 02:25:36;;;;;;;2.95;2.17;;;11.80;99.90;;;;;;5035454;28;20026;-38
2024/03/03 02:28:03;;;;;;;2.65;2.28;;;11.80;99.90;;;;;;5034160;28;20466;-39
2024/03/03 02:30:29;;;;;;;3.70;2.45;;;11.70;99.90;;;;;;5034880;28;20049;-38
2024/03/03 02:32:55;;;;;;;4.15;2.17;;;11.70;99.90;;;;;;5034869;28;20014;-39
2024/03/03 02:35:21;;;;;;;5.57;2.50;;;11.60;99.90;;;;;;5034816;28;20026;-39
2024/03/03 02:37:46;;;;;;;4.38;2.53;;;11.60;99.90;;;;;;5034832;28;20025;-40
2024/03/03 02:40:12;;;;;;;6.43;2.50;;;11.50;99.90;;;;;;5038387;28;20060;-39
2024/03/03 02:42:38;;;;;;;3.17;2.13;;;11.50;99.90;;;;;;5054734;28;20027;-40
2024/03/03 02:45:04;;;;;;;6.13;2.78;;;11.50;99.90;;;;;;5054949;28;20513;-45
2024/03/03 02:47:32;;;;;;;2.30;1.85;;;11.40;99.90;;;;;;5054529;28;20508;-40
2024/03/03 02:49:58;;;;;;;;;;;11.30;99.90;;;;;;5055026;28;20474;-43
2024/03/03 02:52:24;;;;;;;3.47;2.25;;;11.40;99.90;;;;;;5051634;28;19916;-42
2024/03/03 02:54:52;;;;;;;4.82;2.80;;;11.40;99.90;;;;;;5054476;28;20119;-40
2024/03/03 02:57:18;;;;;;;9.65;2.78;;;11.40;99.90;;;;;;5049793;28;20060;-41
2024/03/03 02:59:43;;;;;;;3.45;2.50;;;11.40;99.90;;;;;;5034442;28;20555;-39
2024/03/03 03:02:09;;;;;;;4.18;3.00;;;11.40;99.90;;;;;;5034461;28;20025;-54
2024/03/03 03:04:34;;;;;;;3.35;2.50;;;11.50;99.90;;;;;;5032123;28;20028;-53
2024/03/03 03:07:00;;;;;;;7.40;2.90;;;11.50;99.90;;;;;;5034271;28;20045;-53
2024/03/03 03:09:26;;;;;;;2.88;2.28;;;11.50;99.90;;;;;;5034561;28;20100;-50
2024/03/03 03:11:51;;;;;;;2.53;2.33;;;11.40;99.90;;;;;;5034255;28;20018;-54
2024/03/03 03:14:17;;;;;;;4.13;2.78;;;11.30;99.90;;;;;;5034762;28;20491;-52
2024/03/03 03:16:43;;;;;;;3.95;2.75;;;11.40;99.90;;;;;;5034129;28;20044;-54
2024/03/03 03:19:08;;;;;;;3.47;2.35;;;11.20;99.90;;;;;;5034029;28;20425;-54
2024/03/03 03:21:34;;;;;;;3.63;2.78;;;11.20;99.90;;;;;;5033978;28;20549;-55
2024/03/03 03:24:00;;;;;;;6.28;2.88;;;11.20;99.90;;;;;;5034042;28;20029;-55
2024/03/03 03:26:27;;;;;;;2.78;2.30;;;11.20;99.90;;;;;;5033991;28;20494;-53
2024/03/03 03:28:53;;;;;;;9.05;2.78;;;11.30;99.90;;;;;;5034183;28;20470;-53
2024/03/03 03:31:18;;;;;;;4.28;2.72;;;11.30;99.90;;;;;;5034234;28;20038;-56
2024/03/03 03:33:44;;;;;;;5.28;2.63;;;11.40;99.90;;;;;;5033803;28;20025;-53
2024/03/03 03:36:10;;;;;;;3.15;2.10;;;11.40;99.90;;;;;;5033717;28;20112;-56
2024/03/03 03:38:36;;;;;;;4.15;3.00;;;11.50;99.90;;;;;;5033703;28;20127;-55
2024/03/03 03:41:05;;;;;;;5.53;2.83;;;11.50;99.90;;;;;;5033942;28;20032;-54
2024/03/03 03:43:31;;;;;;;4.30;2.38;;;11.50;99.90;;;;;;5033655;28;20041;-53
2024/03/03 03:45:57;;;;;;;2.85;2.40;;;11.40;99.90;;;;;;5032313;28;20398;-55
2024/03/03 03:48:26;;;;;;;3.78;2.55;;;11.40;99.90;;;;;;5038647;28;20476;-54
2024/03/03 03:50:52;;;;;;;3.28;2.50;;;11.40;99.90;;;;;;5053369;28;20112;-53
2024/03/03 03:53:17;;;;;;;8.40;2.90;;;11.30;99.90;;;;;;5053384;28;20506;-54
2024/03/03 03:55:43;;;;;;;3.85;2.53;;;11.30;99.90;;;;;;5053251;28;20053;-52
2024/03/03 03:58:09;;;;;;;5.80;2.88;;;11.40;99.90;;;;;;5053376;28;20033;-55
2024/03/03 04:00:34;;;;;;;3.80;2.67;;;11.30;99.90;;;;;;5053533;28;20473;-54
2024/03/03 04:03:00;;;;;;;3.63;2.38;;;11.30;99.90;;;;;;5053136;28;20039;-53
2024/03/03 04:05:26;;;;;;;5.32;3.22;;;11.20;99.90;;;;;;5045930;28;20120;-55
2024/03/03 04:07:51;;;;;;;4.25;2.88;;;11.30;99.90;;;;;;5033146;28;20044;-53
2024/03/03 04:10:18;;;;;;;6.55;3.20;;;11.20;99.90;;;;;;5031919;28;20021;-52
2024/03/03 04:12:47;;;;;;;3.30;2.42;;;11.20;99.90;;;;;;5033221;28;20021;-38
2024/03/03 04:15:14;;;;;;;6.32;2.75;;;11.20;99.90;;;;;;5032944;28;20493;-40
2024/03/03 04:17:40;;;;;;;3.63;2.47;;;11.20;99.90;;;;;;5033380;28;20485;-43
2024/03/03 04:20:06;;;;;;;3.67;2.42;;;11.20;99.90;;;;;;5033050;28;20049;-40
2024/03/03 04:22:33;;;;;;;6.05;2.90;;;11.20;99.90;;;;;;5033562;28;20448;-43
2024/03/03 04:24:59;;;;;;;4.35;2.78;;;11.10;99.90;;;;;;5033001;28;20482;-39
2024/03/03 04:27:25;;;;;;;5.97;3.20;;;11.10;99.90;;;;;;5031550;28;20055;-41
2024/03/03 04:29:50;;;;;;;3.63;2.50;;;11.10;99.90;;;;;;5032747;28;20128;-40
2024/03/03 04:32:16;;;;;;;8.50;3.45;;;11.10;99.90;;;;;;5032756;28;20032;-38
2024/03/03 04:34:42;;;;;;;4.38;3.10;;;11.10;99.90;;;;;;5032688;28;20022;-40
2024/03/03 04:37:08;;;;;;;4.88;3.20;;;11.10;99.90;;;;;;5032812;28;20021;-55
2024/03/03 04:39:34;;;;;;;5.45;3.13;;;11.00;99.90;;;;;;5039457;28;20021;-55
2024/03/03 04:42:02;;;;;;;6.47;3.17;;;11.00;99.90;;;;;;5052694;28;20030;-55
2024/03/03 04:44:31;;;;;;;4.10;2.70;;;11.00;99.90;;;;;;5052962;28;20048;-55
2024/03/03 04:46:57;;;;;;;6.40;3.03;;;10.90;99.90;;;;;;5052812;28;20423;-55
2024/03/03 04:49:23;;;;;;;4.60;2.92;;;10.90;99.90;;;;;;5052419;28;20025;-54
2024/03/03 04:51:49;;;;;;;6.53;3.58;;;11.00;99.90;;;;;;5052578;28;20500;-53
2024/03/03 04:54:14;;;;;;;11.35;3.60;;;11.00;99.90;;;;;;5052756;28;20021;-55
2024/03/03 04:56:43;;;;;;;5.45;2.90;;;11.00;99.90;;;;;;5044620;28;20068;-37
2024/03/03 04:59:10;;;;;;;6.63;3.50;;;10.90;99.90;;;;;;5032589;28;20088;-39
2024/03/03 05:01:42;;;;;;;5.55;3.15;;;10.90;99.90;;;;;;5032596;28;20079;-40
2024/03/03 05:04:08;;;;;;;4.60;3.20;;;10.90;99.90;;;;;;5032623;28;20053;-40
2024/03/03 05:06:44;;;;;;;4.78;2.95;;;10.90;99.90;;;;;;5032766;28;20524;-38
2024/03/03 05:09:10;;;;;;;5.18;3.40;;;10.90;99.90;;;;;;5032735;28;20043;-54
2024/03/03 05:11:36;;;;;;;4.55;2.92;;;10.90;99.90;;;;;;5032446;28;20448;-54
2024/03/03 05:14:01;;;;;;;7.35;3.60;;;10.90;99.90;;;;;;5032966;28;20025;-54
2024/03/03 05:16:27;;;;;;;6.38;3.53;;;10.90;99.90;;;;;;5032472;28;20417;-38
2024/03/03 05:18:52;;;;;;;6.07;4.20;;;10.90;99.90;;;;;;5032403;28;20032;-39
2024/03/03 05:21:18;;;;;;;5.13;3.10;;;11.00;99.90;;;;;;5032436;28;20498;-39
2024/03/03 05:23:44;;;;;;;6.75;3.55;;;10.90;99.90;;;;;;5032693;28;20052;-39
2024/03/03 05:26:16;;;;;;;6.00;3.70;;;11.00;99.90;;;;;;5032299;28;20030;-41
2024/03/03 05:28:41;;;;;;;5.55;3.75;;;11.00;99.90;;;;;;5035799;28;20486;-40
2024/03/03 05:31:07;;;;;;;8.15;3.80;;;11.00;99.90;;;;;;5036648;28;20045;-43
2024/03/03 05:33:33;;;;;;;8.50;4.15;;;11.00;99.90;;;;;;5036369;28;20454;-39
2024/03/03 05:36:00;;;;;;;5.00;3.50;;;11.00;99.90;;;;;;5036263;28;20053;-42
2024/03/03 05:38:25;;;;;;;5.47;3.78;;;11.00;99.90;;;;;;5036025;28;20071;-41
2024/03/03 05:40:51;;;;;;;5.90;4.20;;;11.00;99.90;;;;;;5035904;28;20390;-43
2024/03/03 05:43:17;;;;;;;6.63;4.22;;;11.00;99.90;;;;;;5035922;28;20022;-42
2024/03/03 05:45:45;;;;;;;6.78;4.30;;;10.90;99.90;;;;;;5035856;28;20029;-44
2024/03/03 05:48:11;;;;;;;9.98;4.07;;;10.90;99.90;;;;;;5047490;28;20108;-43
2024/03/03 05:50:37;;;;;;;6.28;4.38;;;10.90;99.90;;;;;;5055904;28;20036;-40
2024/03/03 05:53:06;;;;;;;7.63;4.10;;;10.80;99.90;;;;;;5055683;28;20385;-42
2024/03/03 05:55:31;;;;;;;6.32;3.88;;;10.80;99.90;;;;;;5055568;28;20021;-43
2024/03/03 05:57:57;;;;;;;6.38;4.13;;;10.80;99.90;;;;;;5055623;28;20444;-41
2024/03/03 06:00:23;;;;;;;6.22;3.72;;;10.80;99.90;;;;;;5054367;28;20393;-41
2024/03/03 06:02:49;;;;;;;7.38;4.15;;;10.70;99.90;;;;;;5055504;28;20021;-42
2024/03/03 06:05:15;;;;;;;8.98;4.25;;;10.70;99.90;;;;;;5042863;28;20021;-40
2024/03/03 06:07:41;;;;;;;8.95;4.82;;;10.70;99.90;;;;;;5035404;28;20033;-38
2024/03/03 06:10:07;;;;;;;5.32;4.07;;;10.70;99.90;;;;;;5035373;28;20026;-40
2024/03/03 06:12:33;;;;;;;8.35;4.60;;;10.80;99.90;;;;;;5035390;28;20014;-43
2024/03/03 06:14:58;;;;;;;10.60;4.97;;;10.70;99.90;;;;;;5035350;28;20052;-39
2024/03/03 06:17:24;;;;;;;5.82;3.67;;;10.70;99.90;;;;;;5035592;28;20025;-43
2024/03/03 06:19:50;;;;;;;9.18;4.63;;;10.60;99.90;;;;;;5035285;28;20029;-43
2024/03/03 06:22:15;;;;;;;13.73;4.68;;;10.50;99.90;;;;;;5035847;28;20436;-47
2024/03/03 06:24:41;;;;;;;12.18;4.95;;;10.40;99.90;;;;;;5035273;28;20390;-41
2024/03/03 06:27:07;;;;;;;8.90;4.57;;;10.40;99.90;;;;;;5034851;28;20033;-41
2024/03/03 06:29:35;;;;;;;7.82;3.92;;;10.40;99.90;;;;;;5034874;28;20025;-39
2024/03/03 06:32:01;;;;;;;6.47;4.13;;;10.30;99.90;;;;;;5034890;28;20505;-40
2024/03/03 06:34:27;;;;;;;8.05;4.70;;;10.30;99.90;;;;;;5036730;28;20018;-54
2024/03/03 06:36:53;;;;;;;7.25;4.35;;;10.30;99.90;;;;;;5054918;28;20021;-55
2024/03/03 06:39:19;;;;;;;8.50;4.55;;;10.30;99.90;;;;;;5052715;28;20123;-49
2024/03/03 06:41:44;;;;;;;10.50;5.15;;;10.30;99.90;;;;;;5054787;28;20029;-53
2024/03/03 06:44:12;;;;;;;10.35;5.05;;;10.30;99.90;;;;;;5054995;28;20055;-53
2024/03/03 06:46:43;;;;;;;10.75;4.53;;;10.30;99.90;;;;;;5054678;28;20025;-54
2024/03/03 06:49:09;;;;;;;9.88;4.53;;;10.40;99.90;;;;;;5054538;28;20025;-55
2024/03/03 06:51:34;;;;;;;7.97;4.60;;;10.40;99.90;;;;;;5054639;28;20036;-54
2024/03/03 06:54:00;;;;;;;10.55;4.72;;;10.50;99.90;;;;;;5054550;28;20064;-55
2024/03/03 06:56:26;;;;;;;8.15;4.53;;;10.50;99.90;;;;;;5038512;28;20485;-56
2024/03/03 06:58:51;;;;;;;13.15;5.20;;;10.50;99.90;;;;;;5034826;28;20082;-55
2024/03/03 07:01:18;;;;;;;12.15;4.88;;;10.60;99.90;;;;;;5034542;28;20527;-55
2024/03/03 07:04:07;;;;;;;8.95;5.50;;;10.60;99.90;;;;;;5034300;28;20032;-56
2024/03/03 07:06:33;;;;;;;10.55;4.90;;;10.60;99.90;;;;;;5034382;28;20029;-53
2024/03/03 07:09:00;;;;;;;6.85;4.50;;;10.60;99.90;;;;;;5034319;28;20033;-55
2024/03/03 07:11:26;;;;;;;10.43;5.22;;;10.60;99.90;;;;;;5034215;28;20021;-58
2024/03/03 07:13:52;;;;;;;8.70;4.35;;;10.70;99.90;;;;;;5034783;28;20083;-54
2024/03/03 07:16:18;;;;;;;8.48;4.63;;;10.70;99.90;;;;;;5034193;28;20474;-52
2024/03/03 07:18:44;;;;;;;6.13;4.07;;;10.70;99.90;;;;;;5034176;28;20022;-53
2024/03/03 07:21:10;;;;;;;10.13;4.60;;;10.70;99.90;;;;;;5034049;28;20048;-54
2024/03/03 07:23:36;;;;;;;9.18;4.80;;;10.80;99.90;;;;;;5034046;28;20029;-55
2024/03/03 07:26:01;;;;;;;9.15;4.00;;;10.80;99.90;;;;;;5034017;28;20081;-53
2024/03/03 07:28:27;;;;;;;7.35;4.05;;;10.80;99.90;;;;;;5033893;28;20030;-55
2024/03/03 07:30:53;;;;;;;9.23;4.38;;;10.80;99.90;;;;;;5034199;28;20446;-53
2024/03/03 07:33:18;;;;;;;8.55;4.88;;;10.80;99.90;;;;;;5034150;28;20521;-54
2024/03/03 07:35:44;;;;;;;7.95;4.93;;;10.80;99.90;;;;;;5034024;28;20017;-56
2024/03/03 07:38:10;;;;;;;9.38;4.90;;;10.90;99.90;;;;;;5032450;28;20520;-57
2024/03/03 07:40:37;;;;;;;13.98;5.60;;;10.90;99.90;;;;;;5033688;28;20042;-54
2024/03/03 07:43:04;;;;;;;8.45;4.50;;;11.00;99.90;;;;;;5032448;28;20517;-55
2024/03/03 07:45:30;;;;;;;6.53;4.15;;;11.00;99.90;;;;;;5033563;28;20033;-54
2024/03/03 07:47:55;;;;;;;6.82;4.30;;;11.20;99.90;;;;;;5051474;28;20508;-54
2024/03/03 07:50:21;;;;;;;8.82;4.85;;;11.30;99.90;;;;;;5052942;28;20032;-54
2024/03/03 07:52:47;;;;;;;8.52;4.65;;;11.30;99.90;;;;;;5053463;28;20436;-54
2024/03/03 07:55:12;;;;;;;7.78;4.35;;;11.30;99.90;;;;;;5046867;28;20386;-55
2024/03/03 07:57:38;;;;;;;9.10;3.85;;;11.40;99.90;;;;;;5033437;28;20096;-55
2024/03/03 08:00:06;;;;;;;9.02;4.10;;;11.40;99.90;;;;;;5033397;28;20401;-55
2024/03/03 08:02:32;;;;;;;;;;;11.40;99.90;;;;;;5034091;28;20104;-55
2024/03/03 08:04:58;;;;;;;7.88;3.88;;;11.40;99.90;;;;;;5034160;28;20328;-52
2024/03/03 08:07:24;;;;;;;8.50;4.88;;;11.40;99.90;;;;;;5031903;28;20025;-52
2024/03/03 08:09:51;;;;;;;7.80;4.55;;;11.50;99.90;;;;;;5033528;28;20367;-55
2024/03/03 08:12:17;;;;;;;7.75;4.88;;;11.60;99.90;;;;;;5033146;28;20025;-50
2024/03/03 08:14:42;;;;;;;6.22;4.30;;;11.70;99.90;;;;;;5033125;28;20032;-55
2024/03/03 08:17:08;;;;;;;6.07;4.38;;;11.90;99.90;;;;;;5033347;28;20013;-54
2024/03/03 08:19:34;;;;;;;7.35;4.32;;;12.00;99.90;;;;;;5033096;28;20029;-55
2024/03/03 08:21:59;;;;;;;7.30;4.47;;;12.10;99.90;;;;;;5033861;28;20465;-61
2024/03/03 08:24:26;;;;;;;8.60;4.18;;;12.30;99.90;;;;;;5033275;28;20414;-55
2024/03/03 08:26:52;;;;;;;6.22;4.50;;;12.50;99.90;;;;;;5032942;28;20018;-54
2024/03/03 08:29:17;;;;;;;7.32;4.53;;;12.60;99.90;;;;;;5032933;28;20038;-55
2024/03/03 08:31:44;;;;;;;7.07;3.90;;;12.70;99.90;;;;;;5032717;28;20057;-54
2024/03/03 08:34:11;;;;;;;7.18;3.65;;;12.80;99.90;;;;;;5033149;28;20132;-58
2024/03/03 08:36:39;;;;;;;8.35;4.22;;;12.80;99.90;;;;;;5032702;28;20478;-54
2024/03/03 08:39:05;;;;;;;6.63;3.92;;;12.80;99.90;;;;;;5051768;28;20028;-55
2024/03/03 08:41:31;;;;;;;5.43;3.40;;;12.80;99.90;;;;;;5052700;28;20079;-53
2024/03/03 08:43:57;;;;;;;11.93;4.70;;;12.80;99.90;;;;;;5051341;28;20024;-55
2024/03/03 08:46:23;;;;;;;8.07;4.00;;;12.80;99.90;;;;;;5051246;28;20021;-54
2024/03/03 08:48:48;;;;;;;10.50;4.22;;;12.80;99.90;;;;;;5052393;28;20027;-38
2024/03/03 08:51:14;;;;;;;9.85;3.88;;;12.80;99.90;;;;;;5052504;28;20451;-39
2024/03/03 08:53:40;;;;;;;6.13;4.00;;;12.90;99.90;;;;;;5052454;28;20534;-40
2024/03/03 08:56:06;;;;;;;7.55;4.20;;;13.00;99.90;;;;;;5036594;28;20053;-39
2024/03/03 08:58:32;;;;;;;7.15;4.03;;;13.00;99.90;;;;;;5031297;28;20196;-39
2024/03/03 09:00:58;;;;;;;8.18;4.22;;;12.90;99.90;;;;;;5032570;28;20461;-45
2024/03/03 09:03:23;;;;;;;7.32;4.13;;;12.90;99.90;;;;;;5034424;28;20101;-39
2024/03/03 09:05:49;;;;;;;8.30;4.28;;;12.90;99.90;;;;;;5036822;28;20314;-39
2024/03/03 09:08:15;;;;;;;4.90;3.83;;;13.00;99.90;;;;;;5036501;28;20032;-39
2024/03/03 09:10:40;;;;;;;6.60;3.58;;;13.00;99.90;;;;;;5036591;28;20493;-41
2024/03/03 09:13:06;;;;;;;6.82;3.08;;;13.10;99.90;;;;;;5037008;28;20021;-39
2024/03/03 09:15:32;;;;;;;7.90;4.20;;;13.20;99.90;;;;;;5036368;28;20022;-40
2024/03/03 09:17:58;;;;;;;7.30;4.15;;;13.30;99.90;;;;;;5035167;28;20075;-37
2024/03/03 09:20:24;;;;;;;5.45;3.38;;;13.40;99.90;;;;;;5036309;28;20026;-47
2024/03/03 09:22:49;;;;;;;6.22;3.47;;;13.50;99.90;;;;;;5036235;28;20029;-38
2024/03/03 09:25:18;;;;;;;8.52;4.22;;;13.50;99.90;;;;;;5036478;28;20026;-41
2024/03/03 09:27:44;;;;;;;7.15;4.13;;;13.60;99.90;;;;;;5036287;28;20471;-40
2024/03/03 09:30:10;;;;;;;5.90;3.75;;;13.80;99.90;;;;;;5036545;28;20373;-37
2024/03/03 09:32:36;;;;;;;12.48;4.18;;;13.80;99.90;;;;;;5034873;28;20490;-37
2024/03/03 09:35:02;;;;;;;6.32;3.55;;;13.90;99.90;;;;;;5036010;28;20029;-56
2024/03/03 09:37:28;;;;;;;4.95;3.53;;;14.00;99.90;;;;;;5036008;28;20039;-51
2024/03/03 09:39:54;;;;;;;6.78;3.70;;;14.00;99.90;;;;;;5036016;28;20014;-52
2024/03/03 09:42:19;;;;;;;7.45;3.92;;;14.00;99.90;;;;;;5035997;28;20500;-52
2024/03/03 09:44:53;;;;;;;6.15;3.92;;;14.10;99.90;;;;;;5036305;28;20101;-50
2024/03/03 09:47:22;;;;;;;7.65;4.13;;;14.20;99.90;;;;;;5036772;28;20013;-55
2024/03/03 09:49:48;;;;;;;6.65;3.60;;;14.30;99.90;;;;;;5034415;28;20030;-54
2024/03/03 09:52:14;;;;;;;10.90;4.43;;;14.50;99.90;;;;;;5035772;28;20096;-55
2024/03/03 09:54:43;;;;;;;7.85;3.72;;;14.80;99.90;;;;;;5037652;28;20446;-55
2024/03/03 09:57:13;;;;;;;9.25;4.18;;;14.90;99.90;;;;;;5055879;28;20492;-53
2024/03/03 09:59:44;;;;;;;7.78;3.72;;;15.00;99.90;;;;;;5055830;28;20032;-54
2024/03/03 10:02:16;;;;;;;6.38;4.10;;;15.10;99.90;;;;;;5051809;28;20037;-53
2024/03/03 10:04:45;;;;;;;4.78;3.33;;;15.10;99.90;;;;;;5035582;28;20021;-40
2024/03/03 10:07:20;;;;;;;8.85;3.50;;;14.90;99.90;;;;;;5035673;28;20029;-40
2024/03/03 10:10:00;;;;;;;12.43;3.50;;;14.80;99.90;;;;;;5035539;28;20021;-40
2024/03/03 10:12:26;;;;;;;5.95;3.35;;;14.70;99.90;;;;;;5035446;28;20029;-40
2024/03/03 10:14:55;;;;;;;8.70;3.45;;;14.70;99.90;;;;;;5035607;28;20397;-40
2024/03/03 10:17:21;;;;;;;4.60;2.67;;;14.70;99.90;;;;;;5035862;28;20032;-43
2024/03/03 10:19:46;;;;;;;5.95;2.70;;;14.80;99.90;;;;;;5035949;28;20390;-41
2024/03/03 10:22:18;;;;;;;7.88;3.63;;;14.90;99.90;;;;;;5035101;28;20029;-49
2024/03/03 10:24:44;;;;;;;7.55;3.47;;;14.80;99.90;;;;;;5035366;28;20083;-44
2024/03/03 10:27:18;;;;;;;6.05;3.58;;;14.80;99.90;;;;;;5035041;28;20441;-39
2024/03/03 10:29:44;;;;;;;5.35;3.47;;;14.70;99.90;;;;;;5035069;28;20037;-42
2024/03/03 10:32:10;;;;;;;5.28;3.30;;;14.80;99.90;;;;;;5034894;28;20049;-39
2024/03/03 10:34:40;;;;;;;7.18;3.33;;;14.70;99.90;;;;;;5034882;28;20502;-48
2024/03/03 10:37:06;;;;;;;7.15;3.00;;;14.80;99.90;;;;;;5045978;28;20025;-39
2024/03/03 10:39:35;;;;;;;8.60;3.13;;;14.70;99.90;;;;;;5054774;28;20052;-42
2024/03/03 10:42:09;;;;;;;8.25;3.65;;;14.70;99.90;;;;;;5053478;28;20082;-40
2024/03/03 10:44:35;;;;;;;4.28;2.30;;;14.80;99.90;;;;;;5055033;28;20477;-40
2024/03/03 10:47:00;;;;;;;5.15;3.22;;;15.00;99.90;;;;;;5054906;28;20025;-43
2024/03/03 10:49:28;;;;;;;6.82;3.42;;;15.10;99.90;;;;;;5054519;28;20108;-43
2024/03/03 10:51:59;;;;;;;4.70;3.13;;;15.10;99.90;;;;;;5054611;28;20036;-41
2024/03/03 10:54:24;;;;;;;4.88;3.15;;;15.10;99.90;;;;;;5053798;28;20389;-46
2024/03/03 10:56:51;;;;;;;4.78;2.72;;;15.10;99.90;;;;;;5034726;28;20026;-40
2024/03/03 10:59:18;;;;;;;6.47;2.63;;;15.10;99.90;;;;;;5034726;28;20486;-40
2024/03/03 11:01:44;;;;;;;9.40;2.97;;;15.10;99.90;;;;;;5034510;28;20064;-38
2024/03/03 11:04:13;;;;;;;4.90;3.10;;;15.20;99.90;;;;;;5034589;28;20029;-40
2024/03/03 11:06:42;;;;;;;5.38;2.75;;;15.10;99.90;;;;;;5034362;28;20044;-38
2024/03/03 11:09:11;;;;;;;4.70;2.42;;;15.10;99.90;;;;;;5034271;28;20490;-40
2024/03/03 11:11:42;;;;;;;7.40;2.75;;;15.20;99.90;;;;;;5034798;28;20068;-41
2024/03/03 11:14:11;;;;;;;8.32;3.00;;;15.40;99.90;;;;;;5034393;28;20022;-54
2024/03/03 11:16:39;;;;;;;2.75;2.30;;;15.40;99.90;;;;;;5034228;28;20025;-53
2024/03/03 11:19:21;;;;;;;4.32;2.33;;;15.50;99.90;;;;;;5034434;28;20478;-54
2024/03/03 11:21:55;;;;;;;2.95;2.30;;;15.60;99.90;;;;;;5034216;28;20535;-57
2024/03/03 11:24:31;;;;;;;3.38;2.03;;;15.80;99.90;;;;;;5044622;28;20474;-39
2024/03/03 11:27:24;;;;;;;6.00;1.67;;;15.70;99.90;;;;;;5046321;28;20033;-40
2024/03/03 11:29:50;;;;;;;2.45;1.73;;;15.80;99.90;;;;;;5037471;28;20375;-40
2024/03/03 11:32:18;;;;;;;3.28;1.58;;;15.90;99.90;;;;;;5053577;28;20033;-39
2024/03/03 11:34:45;;;;;;;1.23;1.13;;;16.00;99.90;;;;;;5048266;28;20026;-40
2024/03/03 11:37:12;;;;;;;6.13;1.83;;;16.20;99.90;;;;;;5034088;28;20543;-38
2024/03/03 11:40:12;;;;;;;2.67;1.27;;;16.10;99.90;;;;;;5033852;28;20026;-38
2024/03/03 11:42:38;;;;;;;2.38;1.42;;;16.20;99.90;;;;;;5043514;28;20025;-42
2024/03/03 11:45:06;;;;;;;2.72;2.13;;;16.40;99.90;;;;;;5042585;28;20025;-52
2024/03/03 11:47:36;;;;;;;3.55;1.63;;;16.50;99.90;;;;;;5033821;28;20273;-55
2024/03/03 11:50:24;;;;;;;4.15;2.13;;;16.50;99.90;;;;;;5033799;28;20417;-57
2024/03/03 11:52:50;;;;;;;;;;;16.50;99.90;;;;;;5034291;28;20038;-55
2024/03/03 11:55:27;;;;;;;4.13;1.70;;;16.60;99.90;;;;;;5033649;28;20417;-55
2024/03/03 11:57:58;;;;;;;4.88;1.67;;;16.60;99.90;;;;;;5034518;28;20033;-52
2024/03/03 12:00:26;;;;;;;3.17;1.65;;;16.70;99.90;;;;;;5033706;28;20060;-52
2024/03/03 12:02:53;;;;;;;1.58;1.10;;;16.80;99.90;;;;;;5049431;28;20035;-55
2024/03/03 12:05:20;;;;;;;1.93;1.80;;;16.90;99.90;;;;;;5053259;28;20086;-57
2024/03/03 12:07:48;;;;;;;1.15;0.75;;;17.10;99.90;;;;;;5053370;28;20436;-54
2024/03/03 12:10:17;;;;;;;2.95;1.02;;;17.10;99.90;;;;;;5053364;28;20382;-53
2024/03/03 12:12:51;;;;;;;1.42;0.80;;;16.90;99.90;;;;;;5052973;28;20096;-54
2024/03/03 12:15:19;;;;;;;2.50;0.85;;;17.00;99.90;;;;;;5053072;28;20100;-55
2024/03/03 12:17:48;;;;;;;2.50;0.85;;;17.00;99.90;;;;;;5052684;28;20393;-52
2024/03/03 12:20:16;;;;;;;1.67;1.00;;;16.90;99.90;;;;;;5031731;28;20034;-52
2024/03/03 12:22:42;;;;;;;4.38;1.13;;;16.80;99.90;;;;;;5032915;28;20335;-55
2024/03/03 12:25:09;;;;;;;4.07;1.30;;;16.80;99.90;;;;;;5032943;28;20131;-40
2024/03/03 12:27:34;;;;;;;2.90;1.40;;;16.80;99.90;;;;;;5032829;28;20371;-41
2024/03/03 12:30:05;;;;;;;2.13;1.35;;;16.90;99.90;;;;;;5032875;28;20032;-40
2024/03/03 12:32:30;;;;;;;2.25;1.45;;;17.00;99.90;;;;;;5032790;28;20056;-40
2024/03/03 12:34:56;;;;;;;1.25;0.95;;;17.10;99.90;;;;;;5034325;28;20402;-39
2024/03/03 12:37:23;;;;;;;2.88;0.85;;;17.20;99.90;;;;;;5052666;28;20143;-41
2024/03/03 12:39:51;;;;;;;2.72;1.25;;;17.30;99.90;;;;;;5052690;28;20021;-42
2024/03/03 12:42:17;;;;;;;2.22;1.90;;;17.40;99.90;;;;;;5052674;28;20032;-55
2024/03/03 12:44:43;;;;;;;1.90;1.27;;;17.30;99.90;;;;;;5052605;28;20441;-55
2024/03/03 12:47:13;;;;;;;4.38;1.30;;;17.00;99.90;;;;;;5052531;28;20143;-55